天津 の空港の天気 - METARとTAF

天津濱海国際空港 ( ZBTJ / TSN ) - 中国 天津市
飛行場実況気象(Metar)
観測時間05/27 07:00 CST (05/26 23:00 UTC)
風向・風速不定 1m/s
視程10km以上
天気現象
なし
気温20℃
湿度60%
気圧1002hPa
METARZBTJ 262300Z VRB01MPS CAVOK 20/12 Q1002 NOSIG
過去の天気等 Google飛行場航空写真 Wunderground天気予報

過去48時間のMETAR

飛行場予報(TAF)
発表時間: 5/26 23:09 CST (5/26 15:09 UTC)
予報対象時間: 27日2時 CST ~ 28日2時 CST
風向・風速南西 3m/s
視程5000m
天気現象煙霧
なし
27日22時 CST ~ 27日23時 CST に徐々に
風向・風速南南西 8m/s
TAF ZBTJ 261509Z 2618/2718 23003MPS 5000 HZ NSC TX34/2707Z TN18/2621Z
BECMG 2714/2715 21008MPS